sensor_id;sensor_type;location;lat;lon;timestamp;pressure;altitude;pressure_sealevel;temperature;humidity
6198;BME280;3132;42.622;23.328;2023-05-18T00:01:58;92330.25;;;11.44;100.00
6198;BME280;3132;42.622;23.328;2023-05-18T00:04:23;92343.78;;;11.46;100.00
6198;BME280;3132;42.622;23.328;2023-05-18T00:06:50;92337.66;;;11.69;100.00
6198;BME280;3132;42.622;23.328;2023-05-18T00:09:24;92348.72;;;11.47;100.00
6198;BME280;3132;42.622;23.328;2023-05-18T00:11:53;92326.56;;;11.58;100.00
6198;BME280;3132;42.622;23.328;2023-05-18T00:14:19;92338.84;;;11.30;100.00
6198;BME280;3132;42.622;23.328;2023-05-18T00:16:44;92337.09;;;11.26;100.00
6198;BME280;3132;42.622;23.328;2023-05-18T00:19:10;92318.53;;;11.27;100.00
6198;BME280;3132;42.622;23.328;2023-05-18T00:21:39;92304.66;;;11.00;100.00
6198;BME280;3132;42.622;23.328;2023-05-18T00:24:06;92341.47;;;11.30;100.00
6198;BME280;3132;42.622;23.328;2023-05-18T00:26:32;92338.94;;;11.25;100.00
6198;BME280;3132;42.622;23.328;2023-05-18T00:28:57;92334.50;;;11.26;100.00
6198;BME280;3132;42.622;23.328;2023-05-18T00:31:22;92329.84;;;11.23;100.00
6198;BME280;3132;42.622;23.328;2023-05-18T00:33:48;92335.94;;;11.46;100.00
6198;BME280;3132;42.622;23.328;2023-05-18T00:36:13;92333.13;;;11.28;100.00
6198;BME280;3132;42.622;23.328;2023-05-18T00:38:38;92330.31;;;11.11;100.00
6198;BME280;3132;42.622;23.328;2023-05-18T00:41:04;92340.13;;;11.47;100.00
6198;BME280;3132;42.622;23.328;2023-05-18T00:43:29;92331.69;;;11.22;100.00
6198;BME280;3132;42.622;23.328;2023-05-18T00:45:55;92342.75;;;11.33;100.00
6198;BME280;3132;42.622;23.328;2023-05-18T00:48:20;92337.44;;;11.52;100.00
6198;BME280;3132;42.622;23.328;2023-05-18T00:50:45;92321.63;;;11.29;100.00
6198;BME280;3132;42.622;23.328;2023-05-18T00:53:11;92279.69;;;10.94;100.00
6198;BME280;3132;42.622;23.328;2023-05-18T00:55:37;92318.44;;;11.46;100.00
6198;BME280;3132;42.622;23.328;2023-05-18T00:58:02;92311.75;;;11.54;100.00
6198;BME280;3132;42.622;23.328;2023-05-18T01:00:30;92303.44;;;11.52;100.00
6198;BME280;3132;42.622;23.328;2023-05-18T01:02:56;92323.31;;;11.80;100.00
6198;BME280;3132;42.622;23.328;2023-05-18T01:05:21;92318.94;;;11.75;100.00
6198;BME280;3132;42.622;23.328;2023-05-18T01:07:47;92322.91;;;11.73;100.00
6198;BME280;3132;42.622;23.328;2023-05-18T01:10:16;92319.22;;;11.74;100.00
6198;BME280;3132;42.622;23.328;2023-05-18T01:12:44;92315.94;;;11.82;100.00
6198;BME280;3132;42.622;23.328;2023-05-18T01:15:17;92311.69;;;11.86;100.00
6198;BME280;3132;42.622;23.328;2023-05-18T01:20:48;92307.03;;;11.69;100.00
6198;BME280;3132;42.622;23.328;2023-05-18T01:26:23;92322.41;;;11.98;100.00
6198;BME280;3132;42.622;23.328;2023-05-18T01:28:55;92319.41;;;11.91;100.00
6198;BME280;3132;42.622;23.328;2023-05-18T01:31:22;92320.75;;;12.02;100.00
6198;BME280;3132;42.622;23.328;2023-05-18T01:33:47;92315.50;;;12.02;100.00
6198;BME280;3132;42.622;23.328;2023-05-18T01:36:13;92321.28;;;12.26;100.00
6198;BME280;3132;42.622;23.328;2023-05-18T01:38:39;92319.94;;;12.15;100.00
6198;BME280;3132;42.622;23.328;2023-05-18T01:41:11;92307.38;;;12.03;100.00
6198;BME280;3132;42.622;23.328;2023-05-18T01:46:52;92322.69;;;11.96;100.00
6198;BME280;3132;42.622;23.328;2023-05-18T01:52:18;92286.09;;;11.69;100.00
6198;BME280;3132;42.622;23.328;2023-05-18T01:54:49;92314.94;;;11.91;100.00
6198;BME280;3132;42.622;23.328;2023-05-18T01:57:15;92325.88;;;12.07;100.00
6198;BME280;3132;42.622;23.328;2023-05-18T01:59:41;92307.69;;;11.88;100.00
6198;BME280;3132;42.622;23.328;2023-05-18T02:02:07;92320.88;;;11.97;100.00
6198;BME280;3132;42.622;23.328;2023-05-18T02:04:32;92329.38;;;12.02;100.00
6198;BME280;3132;42.622;23.328;2023-05-18T02:06:59;92316.28;;;12.02;100.00
6198;BME280;3132;42.622;23.328;2023-05-18T02:09:25;92339.34;;;12.14;100.00
6198;BME280;3132;42.622;23.328;2023-05-18T02:11:50;92328.28;;;12.17;100.00
6198;BME280;3132;42.622;23.328;2023-05-18T02:14:15;92322.84;;;12.13;100.00
6198;BME280;3132;42.622;23.328;2023-05-18T02:16:41;92325.78;;;12.12;100.00
6198;BME280;3132;42.622;23.328;2023-05-18T02:19:12;92330.22;;;12.11;100.00
6198;BME280;3132;42.622;23.328;2023-05-18T02:21:39;92336.28;;;11.98;100.00
6198;BME280;3132;42.622;23.328;2023-05-18T02:24:06;92334.91;;;12.01;100.00
6198;BME280;3132;42.622;23.328;2023-05-18T02:26:31;92332.63;;;12.08;100.00
6198;BME280;3132;42.622;23.328;2023-05-18T02:28:57;92340.31;;;12.04;100.00
6198;BME280;3132;42.622;23.328;2023-05-18T02:31:22;92333.47;;;11.81;100.00
6198;BME280;3132;42.622;23.328;2023-05-18T02:33:47;92329.47;;;11.97;100.00
6198;BME280;3132;42.622;23.328;2023-05-18T02:36:13;92344.56;;;12.00;100.00
6198;BME280;3132;42.622;23.328;2023-05-18T02:38:40;92330.81;;;12.08;100.00
6198;BME280;3132;42.622;23.328;2023-05-18T02:41:07;92334.41;;;12.12;100.00
6198;BME280;3132;42.622;23.328;2023-05-18T02:43:32;92342.56;;;12.11;100.00
6198;BME280;3132;42.622;23.328;2023-05-18T02:45:58;92343.16;;;12.30;100.00
6198;BME280;3132;42.622;23.328;2023-05-18T02:48:23;92347.91;;;11.79;100.00
6198;BME280;3132;42.622;23.328;2023-05-18T02:50:49;92338.00;;;11.89;100.00
6198;BME280;3132;42.622;23.328;2023-05-18T02:53:14;92346.03;;;12.06;100.00
6198;BME280;3132;42.622;23.328;2023-05-18T02:55:40;92342.84;;;11.96;100.00
6198;BME280;3132;42.622;23.328;2023-05-18T02:58:06;92356.09;;;12.13;100.00
6198;BME280;3132;42.622;23.328;2023-05-18T03:00:32;92347.88;;;12.06;100.00
6198;BME280;3132;42.622;23.328;2023-05-18T03:02:58;92359.78;;;12.12;100.00
6198;BME280;3132;42.622;23.328;2023-05-18T03:05:25;92367.06;;;12.15;100.00
6198;BME280;3132;42.622;23.328;2023-05-18T03:07:50;92361.56;;;12.03;100.00
6198;BME280;3132;42.622;23.328;2023-05-18T03:10:19;92364.75;;;12.00;100.00
6198;BME280;3132;42.622;23.328;2023-05-18T03:12:46;92395.75;;;12.20;100.00
6198;BME280;3132;42.622;23.328;2023-05-18T03:15:11;92388.34;;;12.22;100.00
6198;BME280;3132;42.622;23.328;2023-05-18T03:17:38;92357.06;;;12.03;100.00
6198;BME280;3132;42.622;23.328;2023-05-18T03:20:06;92387.31;;;12.23;100.00
6198;BME280;3132;42.622;23.328;2023-05-18T03:22:32;92392.44;;;12.14;100.00
6198;BME280;3132;42.622;23.328;2023-05-18T03:24:57;92398.94;;;12.17;100.00
6198;BME280;3132;42.622;23.328;2023-05-18T03:27:25;92405.03;;;12.26;100.00
6198;BME280;3132;42.622;23.328;2023-05-18T03:29:51;92402.16;;;12.14;100.00
6198;BME280;3132;42.622;23.328;2023-05-18T03:32:17;92404.59;;;11.97;100.00
6198;BME280;3132;42.622;23.328;2023-05-18T03:34:44;92405.22;;;11.75;100.00
6198;BME280;3132;42.622;23.328;2023-05-18T03:37:12;92391.25;;;11.53;100.00
6198;BME280;3132;42.622;23.328;2023-05-18T03:39:38;92418.63;;;12.01;100.00
6198;BME280;3132;42.622;23.328;2023-05-18T03:42:04;92416.97;;;12.05;100.00
6198;BME280;3132;42.622;23.328;2023-05-18T03:44:30;92419.38;;;12.15;100.00
6198;BME280;3132;42.622;23.328;2023-05-18T03:46:55;92420.06;;;12.07;100.00
6198;BME280;3132;42.622;23.328;2023-05-18T03:49:21;92414.75;;;12.12;100.00
6198;BME280;3132;42.622;23.328;2023-05-18T03:51:46;92419.78;;;12.08;100.00
6198;BME280;3132;42.622;23.328;2023-05-18T03:54:11;92410.03;;;11.55;100.00
6198;BME280;3132;42.622;23.328;2023-05-18T03:56:37;92427.44;;;11.91;100.00
6198;BME280;3132;42.622;23.328;2023-05-18T03:59:02;92426.09;;;11.94;100.00
6198;BME280;3132;42.622;23.328;2023-05-18T04:01:30;92432.94;;;12.03;100.00
6198;BME280;3132;42.622;23.328;2023-05-18T04:03:57;92422.09;;;12.10;100.00
6198;BME280;3132;42.622;23.328;2023-05-18T04:06:23;92398.63;;;12.05;100.00
6198;BME280;3132;42.622;23.328;2023-05-18T04:08:53;92434.03;;;12.29;100.00
6198;BME280;3132;42.622;23.328;2023-05-18T04:11:19;92443.03;;;12.37;100.00
6198;BME280;3132;42.622;23.328;2023-05-18T04:13:45;92430.53;;;12.34;100.00
6198;BME280;3132;42.622;23.328;2023-05-18T04:16:11;92421.81;;;12.25;100.00
6198;BME280;3132;42.622;23.328;2023-05-18T04:18:38;92399.34;;;12.10;100.00
6198;BME280;3132;42.622;23.328;2023-05-18T04:21:04;92448.25;;;12.10;100.00
6198;BME280;3132;42.622;23.328;2023-05-18T04:23:31;92432.78;;;12.00;100.00
6198;BME280;3132;42.622;23.328;2023-05-18T04:25:58;92438.28;;;12.25;100.00
6198;BME280;3132;42.622;23.328;2023-05-18T04:28:24;92446.72;;;12.09;100.00
6198;BME280;3132;42.622;23.328;2023-05-18T04:30:49;92445.66;;;11.83;100.00
6198;BME280;3132;42.622;23.328;2023-05-18T04:33:16;92442.34;;;12.18;100.00
6198;BME280;3132;42.622;23.328;2023-05-18T04:35:42;92448.66;;;12.30;100.00
6198;BME280;3132;42.622;23.328;2023-05-18T04:38:08;92453.13;;;12.16;100.00
6198;BME280;3132;42.622;23.328;2023-05-18T04:40:34;92441.38;;;12.27;100.00
6198;BME280;3132;42.622;23.328;2023-05-18T04:43:02;92450.78;;;12.42;100.00
6198;BME280;3132;42.622;23.328;2023-05-18T04:45:28;92454.28;;;12.24;100.00
6198;BME280;3132;42.622;23.328;2023-05-18T04:47:54;92455.41;;;12.58;100.00
6198;BME280;3132;42.622;23.328;2023-05-18T04:50:20;92458.91;;;12.27;100.00
6198;BME280;3132;42.622;23.328;2023-05-18T04:52:49;92457.81;;;12.55;100.00
6198;BME280;3132;42.622;23.328;2023-05-18T04:55:16;92467.72;;;12.71;100.00
6198;BME280;3132;42.622;23.328;2023-05-18T04:57:47;92473.34;;;12.65;100.00
6198;BME280;3132;42.622;23.328;2023-05-18T05:00:12;92476.84;;;12.47;100.00
6198;BME280;3132;42.622;23.328;2023-05-18T05:02:38;92479.66;;;12.50;100.00
6198;BME280;3132;42.622;23.328;2023-05-18T05:05:04;92482.34;;;12.72;100.00
6198;BME280;3132;42.622;23.328;2023-05-18T05:07:29;92487.88;;;12.71;100.00
6198;BME280;3132;42.622;23.328;2023-05-18T05:09:55;92495.19;;;12.20;100.00
6198;BME280;3132;42.622;23.328;2023-05-18T05:12:20;92458.53;;;11.93;100.00
6198;BME280;3132;42.622;23.328;2023-05-18T05:14:46;92494.50;;;12.14;100.00
6198;BME280;3132;42.622;23.328;2023-05-18T05:17:11;92489.94;;;12.33;100.00
6198;BME280;3132;42.622;23.328;2023-05-18T05:19:37;92491.78;;;12.60;100.00
6198;BME280;3132;42.622;23.328;2023-05-18T05:22:02;92492.03;;;12.72;100.00
6198;BME280;3132;42.622;23.328;2023-05-18T05:24:27;92490.72;;;12.47;100.00
6198;BME280;3132;42.622;23.328;2023-05-18T05:26:53;92499.94;;;12.45;100.00
6198;BME280;3132;42.622;23.328;2023-05-18T05:29:18;92498.19;;;12.54;100.00
6198;BME280;3132;42.622;23.328;2023-05-18T05:31:44;92500.41;;;12.60;100.00
6198;BME280;3132;42.622;23.328;2023-05-18T05:34:09;92512.91;;;12.63;100.00
6198;BME280;3132;42.622;23.328;2023-05-18T05:36:36;92509.97;;;12.78;100.00
6198;BME280;3132;42.622;23.328;2023-05-18T05:39:01;92500.81;;;12.40;100.00
6198;BME280;3132;42.622;23.328;2023-05-18T05:41:27;92519.97;;;12.76;100.00
6198;BME280;3132;42.622;23.328;2023-05-18T05:43:52;92520.19;;;12.53;100.00
6198;BME280;3132;42.622;23.328;2023-05-18T05:46:18;92499.25;;;12.26;100.00
6198;BME280;3132;42.622;23.328;2023-05-18T05:48:43;92517.28;;;12.68;100.00
6198;BME280;3132;42.622;23.328;2023-05-18T05:51:08;92514.16;;;12.66;100.00
6198;BME280;3132;42.622;23.328;2023-05-18T05:53:34;92525.63;;;12.70;100.00
6198;BME280;3132;42.622;23.328;2023-05-18T05:55:59;92525.84;;;12.46;100.00
6198;BME280;3132;42.622;23.328;2023-05-18T05:58:25;92504.88;;;12.06;100.00
6198;BME280;3132;42.622;23.328;2023-05-18T06:00:50;92518.91;;;11.96;100.00
6198;BME280;3132;42.622;23.328;2023-05-18T06:03:16;92509.41;;;11.87;100.00
6198;BME280;3132;42.622;23.328;2023-05-18T06:05:41;92477.50;;;11.71;100.00
6198;BME280;3132;42.622;23.328;2023-05-18T06:08:07;92513.16;;;11.81;100.00
6198;BME280;3132;42.622;23.328;2023-05-18T06:10:33;92517.53;;;11.99;100.00
6198;BME280;3132;42.622;23.328;2023-05-18T06:12:58;92521.16;;;12.16;100.00
6198;BME280;3132;42.622;23.328;2023-05-18T06:15:24;92525.44;;;12.26;100.00
6198;BME280;3132;42.622;23.328;2023-05-18T06:17:49;92526.00;;;12.50;100.00
6198;BME280;3132;42.622;23.328;2023-05-18T06:20:15;92534.94;;;12.49;100.00
6198;BME280;3132;42.622;23.328;2023-05-18T06:22:40;92529.31;;;12.55;100.00
6198;BME280;3132;42.622;23.328;2023-05-18T06:25:06;92542.31;;;12.74;100.00
6198;BME280;3132;42.622;23.328;2023-05-18T06:27:32;92534.72;;;12.86;100.00
6198;BME280;3132;42.622;23.328;2023-05-18T06:29:57;92540.75;;;12.46;100.00
6198;BME280;3132;42.622;23.328;2023-05-18T06:32:23;92541.50;;;12.19;100.00
6198;BME280;3132;42.622;23.328;2023-05-18T06:34:48;92529.13;;;12.25;100.00
6198;BME280;3132;42.622;23.328;2023-05-18T06:37:16;92537.28;;;12.37;100.00
6198;BME280;3132;42.622;23.328;2023-05-18T06:39:41;92544.41;;;12.18;100.00
6198;BME280;3132;42.622;23.328;2023-05-18T06:42:06;92548.50;;;12.24;100.00
6198;BME280;3132;42.622;23.328;2023-05-18T06:44:32;92561.81;;;12.68;100.00
6198;BME280;3132;42.622;23.328;2023-05-18T06:46:59;92560.53;;;12.79;100.00
6198;BME280;3132;42.622;23.328;2023-05-18T06:49:24;92567.91;;;12.50;100.00
6198;BME280;3132;42.622;23.328;2023-05-18T06:51:50;92552.97;;;12.77;100.00
6198;BME280;3132;42.622;23.328;2023-05-18T06:54:16;92561.75;;;12.95;100.00
6198;BME280;3132;42.622;23.328;2023-05-18T06:56:41;92570.59;;;12.99;100.00
6198;BME280;3132;42.622;23.328;2023-05-18T06:59:07;92564.03;;;13.15;100.00
6198;BME280;3132;42.622;23.328;2023-05-18T07:01:32;92581.69;;;13.10;100.00
6198;BME280;3132;42.622;23.328;2023-05-18T07:03:58;92591.88;;;12.98;100.00
6198;BME280;3132;42.622;23.328;2023-05-18T07:06:24;92585.28;;;13.00;100.00
6198;BME280;3132;42.622;23.328;2023-05-18T07:08:49;92591.28;;;12.73;100.00
6198;BME280;3132;42.622;23.328;2023-05-18T07:11:15;92586.72;;;12.38;100.00
6198;BME280;3132;42.622;23.328;2023-05-18T07:13:40;92594.59;;;12.79;100.00
6198;BME280;3132;42.622;23.328;2023-05-18T07:16:05;92598.53;;;12.36;100.00
6198;BME280;3132;42.622;23.328;2023-05-18T07:18:31;92584.47;;;12.45;100.00
6198;BME280;3132;42.622;23.328;2023-05-18T07:20:58;92603.47;;;12.37;100.00
6198;BME280;3132;42.622;23.328;2023-05-18T07:23:23;92603.59;;;12.59;100.00
6198;BME280;3132;42.622;23.328;2023-05-18T07:25:49;92607.88;;;12.69;100.00
6198;BME280;3132;42.622;23.328;2023-05-18T07:28:14;92613.03;;;12.60;100.00
6198;BME280;3132;42.622;23.328;2023-05-18T07:30:40;92603.59;;;12.32;100.00
6198;BME280;3132;42.622;23.328;2023-05-18T07:33:05;92613.50;;;12.49;100.00
6198;BME280;3132;42.622;23.328;2023-05-18T07:35:31;92611.31;;;12.37;100.00
6198;BME280;3132;42.622;23.328;2023-05-18T07:37:56;92623.38;;;12.52;100.00
6198;BME280;3132;42.622;23.328;2023-05-18T07:40:22;92623.88;;;12.54;100.00
6198;BME280;3132;42.622;23.328;2023-05-18T07:42:47;92627.81;;;12.24;100.00
6198;BME280;3132;42.622;23.328;2023-05-18T07:45:12;92634.06;;;12.55;100.00
6198;BME280;3132;42.622;23.328;2023-05-18T07:47:38;92631.72;;;12.54;100.00
6198;BME280;3132;42.622;23.328;2023-05-18T07:50:04;92645.88;;;12.53;100.00
6198;BME280;3132;42.622;23.328;2023-05-18T07:52:30;92630.22;;;12.21;100.00
6198;BME280;3132;42.622;23.328;2023-05-18T07:54:56;92641.16;;;12.09;100.00
6198;BME280;3132;42.622;23.328;2023-05-18T07:57:22;92645.84;;;12.26;100.00
6198;BME280;3132;42.622;23.328;2023-05-18T07:59:48;92647.94;;;12.10;100.00
6198;BME280;3132;42.622;23.328;2023-05-18T08:02:13;92649.25;;;12.08;100.00
6198;BME280;3132;42.622;23.328;2023-05-18T08:04:40;92660.88;;;12.34;100.00
6198;BME280;3132;42.622;23.328;2023-05-18T08:07:06;92664.22;;;12.21;100.00
6198;BME280;3132;42.622;23.328;2023-05-18T08:09:33;92664.81;;;12.18;100.00
6198;BME280;3132;42.622;23.328;2023-05-18T08:11:58;92666.56;;;12.22;100.00
6198;BME280;3132;42.622;23.328;2023-05-18T08:14:24;92670.28;;;12.35;100.00
6198;BME280;3132;42.622;23.328;2023-05-18T08:16:49;92667.97;;;12.33;100.00
6198;BME280;3132;42.622;23.328;2023-05-18T08:19:15;92677.06;;;12.36;100.00
6198;BME280;3132;42.622;23.328;2023-05-18T08:21:40;92669.34;;;12.44;100.00
6198;BME280;3132;42.622;23.328;2023-05-18T08:24:08;92680.78;;;12.48;100.00
6198;BME280;3132;42.622;23.328;2023-05-18T08:26:34;92677.41;;;12.48;100.00
6198;BME280;3132;42.622;23.328;2023-05-18T08:28:59;92686.16;;;12.57;100.00
6198;BME280;3132;42.622;23.328;2023-05-18T08:31:24;92694.03;;;12.70;100.00
6198;BME280;3132;42.622;23.328;2023-05-18T08:33:50;92682.16;;;12.59;100.00
6198;BME280;3132;42.622;23.328;2023-05-18T08:36:15;92698.25;;;12.53;100.00
6198;BME280;3132;42.622;23.328;2023-05-18T08:38:41;92694.50;;;12.59;100.00
6198;BME280;3132;42.622;23.328;2023-05-18T08:43:35;92708.03;;;12.15;100.00
6198;BME280;3132;42.622;23.328;2023-05-18T08:46:20;92715.81;;;11.83;100.00
6198;BME280;3132;42.622;23.328;2023-05-18T08:48:50;92710.94;;;12.14;100.00
6198;BME280;3132;42.622;23.328;2023-05-18T08:51:20;92703.06;;;12.32;100.00
6198;BME280;3132;42.622;23.328;2023-05-18T08:53:51;92715.53;;;12.54;100.00
6198;BME280;3132;42.622;23.328;2023-05-18T08:56:21;92720.13;;;12.62;100.00
6198;BME280;3132;42.622;23.328;2023-05-18T08:58:48;92718.97;;;12.68;100.00
6198;BME280;3132;42.622;23.328;2023-05-18T09:01:15;92735.00;;;12.80;100.00
6198;BME280;3132;42.622;23.328;2023-05-18T09:03:40;92739.50;;;12.61;100.00
6198;BME280;3132;42.622;23.328;2023-05-18T09:06:06;92733.56;;;12.05;100.00
6198;BME280;3132;42.622;23.328;2023-05-18T09:08:32;92740.94;;;12.03;100.00
6198;BME280;3132;42.622;23.328;2023-05-18T09:11:01;92743.81;;;11.64;100.00
6198;BME280;3132;42.622;23.328;2023-05-18T09:13:28;92744.31;;;11.61;100.00
6198;BME280;3132;42.622;23.328;2023-05-18T09:15:53;92746.25;;;11.98;100.00
6198;BME280;3132;42.622;23.328;2023-05-18T09:18:18;92732.53;;;12.06;100.00
6198;BME280;3132;42.622;23.328;2023-05-18T09:20:44;92751.31;;;12.08;100.00
6198;BME280;3132;42.622;23.328;2023-05-18T09:23:11;92755.72;;;11.94;100.00
6198;BME280;3132;42.622;23.328;2023-05-18T09:25:41;92751.53;;;12.11;100.00
6198;BME280;3132;42.622;23.328;2023-05-18T09:28:07;92733.34;;;12.20;100.00
6198;BME280;3132;42.622;23.328;2023-05-18T09:30:39;92755.78;;;12.26;100.00
6198;BME280;3132;42.622;23.328;2023-05-18T09:33:04;92756.31;;;12.41;100.00
6198;BME280;3132;42.622;23.328;2023-05-18T09:35:30;92738.59;;;12.01;100.00
6198;BME280;3132;42.622;23.328;2023-05-18T09:37:55;92735.41;;;12.23;100.00
6198;BME280;3132;42.622;23.328;2023-05-18T09:40:27;92759.16;;;12.45;100.00
6198;BME280;3132;42.622;23.328;2023-05-18T09:42:53;92755.72;;;12.31;100.00
6198;BME280;3132;42.622;23.328;2023-05-18T09:45:21;92769.13;;;12.43;100.00
6198;BME280;3132;42.622;23.328;2023-05-18T09:47:51;92758.63;;;12.61;100.00
6198;BME280;3132;42.622;23.328;2023-05-18T09:50:21;92766.78;;;12.41;100.00
6198;BME280;3132;42.622;23.328;2023-05-18T09:52:47;92765.41;;;12.12;100.00
6198;BME280;3132;42.622;23.328;2023-05-18T09:55:17;92767.56;;;11.86;100.00
6198;BME280;3132;42.622;23.328;2023-05-18T09:57:45;92752.16;;;12.22;100.00
6198;BME280;3132;42.622;23.328;2023-05-18T10:00:11;92772.34;;;11.84;100.00
6198;BME280;3132;42.622;23.328;2023-05-18T10:02:42;92748.16;;;12.11;100.00
6198;BME280;3132;42.622;23.328;2023-05-18T10:07:47;92768.13;;;12.57;100.00
6198;BME280;3132;42.622;23.328;2023-05-18T10:10:19;92776.78;;;12.21;100.00
6198;BME280;3132;42.622;23.328;2023-05-18T10:12:45;92772.31;;;12.72;100.00
6198;BME280;3132;42.622;23.328;2023-05-18T10:15:14;92778.66;;;12.84;100.00
6198;BME280;3132;42.622;23.328;2023-05-18T10:17:42;92775.84;;;12.81;100.00
6198;BME280;3132;42.622;23.328;2023-05-18T10:20:08;92767.97;;;12.17;100.00
6198;BME280;3132;42.622;23.328;2023-05-18T10:22:35;92777.28;;;12.73;100.00
6198;BME280;3132;42.622;23.328;2023-05-18T10:25:02;92768.41;;;12.56;100.00
6198;BME280;3132;42.622;23.328;2023-05-18T10:27:28;92784.22;;;12.64;100.00
6198;BME280;3132;42.622;23.328;2023-05-18T10:29:56;92782.97;;;12.94;100.00
6198;BME280;3132;42.622;23.328;2023-05-18T10:32:24;92777.84;;;12.70;100.00
6198;BME280;3132;42.622;23.328;2023-05-18T10:34:51;92793.19;;;12.77;100.00
6198;BME280;3132;42.622;23.328;2023-05-18T10:37:18;92793.78;;;12.74;100.00
6198;BME280;3132;42.622;23.328;2023-05-18T10:39:47;92787.03;;;12.36;100.00
6198;BME280;3132;42.622;23.328;2023-05-18T10:42:15;92790.50;;;12.82;100.00
6198;BME280;3132;42.622;23.328;2023-05-18T10:44:42;92791.38;;;13.10;100.00
6198;BME280;3132;42.622;23.328;2023-05-18T10:47:10;92798.88;;;13.16;100.00
6198;BME280;3132;42.622;23.328;2023-05-18T10:49:36;92795.44;;;13.02;100.00
6198;BME280;3132;42.622;23.328;2023-05-18T10:52:02;92798.88;;;13.16;100.00
6198;BME280;3132;42.622;23.328;2023-05-18T10:54:28;92802.50;;;13.34;100.00
6198;BME280;3132;42.622;23.328;2023-05-18T10:56:54;92793.44;;;12.94;100.00
6198;BME280;3132;42.622;23.328;2023-05-18T10:59:20;92775.38;;;12.92;100.00
6198;BME280;3132;42.622;23.328;2023-05-18T11:01:48;92809.50;;;12.74;100.00
6198;BME280;3132;42.622;23.328;2023-05-18T11:04:14;92811.78;;;12.94;100.00
6198;BME280;3132;42.622;23.328;2023-05-18T11:06:40;92823.63;;;13.10;100.00
6198;BME280;3132;42.622;23.328;2023-05-18T11:09:07;92822.72;;;13.01;100.00
6198;BME280;3132;42.622;23.328;2023-05-18T11:11:50;92821.22;;;13.27;100.00
6198;BME280;3132;42.622;23.328;2023-05-18T11:14:24;92825.88;;;13.44;100.00
6198;BME280;3132;42.622;23.328;2023-05-18T11:16:50;92820.91;;;13.15;100.00
6198;BME280;3132;42.622;23.328;2023-05-18T11:19:16;92842.84;;;12.50;100.00
6198;BME280;3132;42.622;23.328;2023-05-18T11:24:28;92845.13;;;13.39;100.00
6198;BME280;3132;42.622;23.328;2023-05-18T11:27:00;92847.66;;;13.44;100.00
6198;BME280;3132;42.622;23.328;2023-05-18T11:29:34;92850.66;;;13.51;100.00
6198;BME280;3132;42.622;23.328;2023-05-18T11:32:00;92855.53;;;13.71;100.00
6198;BME280;3132;42.622;23.328;2023-05-18T11:34:45;92851.38;;;13.70;100.00
6198;BME280;3132;42.622;23.328;2023-05-18T11:40:08;92837.09;;;13.17;100.00
6198;BME280;3132;42.622;23.328;2023-05-18T11:42:35;92862.09;;;13.42;100.00
6198;BME280;3132;42.622;23.328;2023-05-18T11:45:08;92866.75;;;13.31;100.00
6198;BME280;3132;42.622;23.328;2023-05-18T11:47:34;92862.41;;;13.40;100.00
6198;BME280;3132;42.622;23.328;2023-05-18T11:50:08;92858.59;;;13.19;100.00
6198;BME280;3132;42.622;23.328;2023-05-18T11:52:50;92854.88;;;12.69;100.00
6198;BME280;3132;42.622;23.328;2023-05-18T11:55:18;92849.19;;;12.81;100.00
6198;BME280;3132;42.622;23.328;2023-05-18T11:57:47;92850.78;;;12.63;100.00
6198;BME280;3132;42.622;23.328;2023-05-18T12:00:13;92844.16;;;12.52;100.00
6198;BME280;3132;42.622;23.328;2023-05-18T12:02:47;92854.56;;;12.39;100.00
6198;BME280;3132;42.622;23.328;2023-05-18T12:05:13;92853.13;;;12.65;100.00
6198;BME280;3132;42.622;23.328;2023-05-18T12:07:40;92859.22;;;13.11;100.00
6198;BME280;3132;42.622;23.328;2023-05-18T12:10:10;92853.09;;;13.48;100.00
6198;BME280;3132;42.622;23.328;2023-05-18T12:12:37;92862.72;;;13.79;100.00
6198;BME280;3132;42.622;23.328;2023-05-18T12:15:06;92865.16;;;12.98;100.00
6198;BME280;3132;42.622;23.328;2023-05-18T12:17:39;92853.97;;;12.79;100.00
6198;BME280;3132;42.622;23.328;2023-05-18T12:20:10;92857.78;;;13.19;100.00
6198;BME280;3132;42.622;23.328;2023-05-18T12:22:37;92849.69;;;12.83;100.00
6198;BME280;3132;42.622;23.328;2023-05-18T12:25:03;92855.75;;;12.97;100.00
6198;BME280;3132;42.622;23.328;2023-05-18T12:27:29;92861.94;;;13.38;100.00
6198;BME280;3132;42.622;23.328;2023-05-18T12:29:54;92855.16;;;13.51;100.00
6198;BME280;3132;42.622;23.328;2023-05-18T12:32:19;92859.19;;;13.43;100.00
6198;BME280;3132;42.622;23.328;2023-05-18T12:34:45;92854.38;;;13.50;100.00
6198;BME280;3132;42.622;23.328;2023-05-18T12:37:10;92860.00;;;13.57;100.00
6198;BME280;3132;42.622;23.328;2023-05-18T12:39:36;92862.81;;;13.47;100.00
6198;BME280;3132;42.622;23.328;2023-05-18T12:42:12;92859.13;;;12.84;100.00
6198;BME280;3132;42.622;23.328;2023-05-18T12:44:40;92811.03;;;12.24;100.00
6198;BME280;3132;42.622;23.328;2023-05-18T12:47:09;92856.00;;;13.01;100.00
6198;BME280;3132;42.622;23.328;2023-05-18T12:49:36;92851.91;;;12.76;100.00
6198;BME280;3132;42.622;23.328;2023-05-18T12:52:12;92848.28;;;12.72;100.00
6198;BME280;3132;42.622;23.328;2023-05-18T12:54:55;92853.97;;;12.79;100.00
6198;BME280;3132;42.622;23.328;2023-05-18T12:57:26;92838.06;;;12.89;100.00
6198;BME280;3132;42.622;23.328;2023-05-18T12:59:56;92855.16;;;12.86;100.00
6198;BME280;3132;42.622;23.328;2023-05-18T13:02:35;92855.53;;;12.93;100.00
6198;BME280;3132;42.622;23.328;2023-05-18T13:05:09;92842.47;;;12.75;100.00
6198;BME280;3132;42.622;23.328;2023-05-18T13:07:38;92862.66;;;12.93;100.00
6198;BME280;3132;42.622;23.328;2023-05-18T13:10:08;92863.06;;;13.00;100.00
6198;BME280;3132;42.622;23.328;2023-05-18T13:12:37;92869.78;;;13.06;100.00
6198;BME280;3132;42.622;23.328;2023-05-18T13:15:19;92867.59;;;13.13;100.00
6198;BME280;3132;42.622;23.328;2023-05-18T13:20:16;92872.22;;;12.84;100.00
6198;BME280;3132;42.622;23.328;2023-05-18T13:22:42;92871.56;;;12.92;100.00
6198;BME280;3132;42.622;23.328;2023-05-18T13:25:09;92869.41;;;12.80;100.00